Time;durP1;ratioP1;P1;durP2;ratioP2;P2;SDS_P1;SDS_P2;PMS_P1;PMS_P2;Temp;Humidity;BMP_temperature;BMP_pressure;BME280_temperature;BME280_humidity;BME280_pressure;Samples;Min_cycle;Max_cycle;Signal;HPM_P1;HPM_P2
2023/04/20 00:01:46;;;;;;;0.00;0.00;;;;;;;12.55;50.99;102074.94;7343998;19;20480;-67
2023/04/20 00:04:12;;;;;;;0.00;0.00;;;;;;;12.52;50.81;102080.22;7347345;19;20026;-67
2023/04/20 00:06:37;;;;;;;0.00;0.00;;;;;;;12.47;51.25;102066.31;7344211;19;20053;-68
2023/04/20 00:09:03;;;;;;;0.00;0.00;;;;;;;12.43;51.26;102069.81;7348057;19;20795;-67
2023/04/20 00:11:29;;;;;;;0.00;0.00;;;;;;;12.39;51.05;102068.09;7341266;19;20880;-67
2023/04/20 00:13:55;;;;;;;0.00;0.00;;;;;;;12.35;51.30;102062.00;7348410;19;20098;-67
2023/04/20 00:16:20;;;;;;;0.00;0.00;;;;;;;12.31;51.25;102054.19;7350222;19;20497;-67
2023/04/20 00:18:46;;;;;;;0.00;0.00;;;;;;;11.87;51.32;101982.97;7348062;19;21094;-67
2023/04/20 00:21:12;;;;;;;0.00;0.00;;;;;;;12.26;51.05;102050.75;7344288;19;20025;-67
2023/04/20 00:23:38;;;;;;;0.00;0.00;;;;;;;12.23;51.54;102045.53;7349197;19;20010;-67
2023/04/20 00:26:03;;;;;;;0.00;0.00;;;;;;;12.17;51.49;102046.47;7346316;19;20513;-67
2023/04/20 00:28:29;;;;;;;0.00;0.00;;;;;;;12.15;51.16;102059.56;7346662;19;22354;-67
2023/04/20 00:30:54;;;;;;;0.10;0.10;;;;;;;12.12;51.29;102064.81;7347934;19;20034;-67
2023/04/20 00:33:20;;;;;;;0.00;0.00;;;;;;;11.79;51.14;102021.38;7347226;19;20905;-67
2023/04/20 00:35:45;;;;;;;0.00;0.00;;;;;;;12.05;51.14;102073.59;7348740;19;20010;-67
2023/04/20 00:38:11;;;;;;;0.00;0.00;;;;;;;12.01;51.41;102079.72;7348733;19;20377;-67
2023/04/20 00:40:36;;;;;;;0.00;0.00;;;;;;;11.98;51.17;102074.53;7343281;19;20014;-67
2023/04/20 00:43:10;;;;;;;0.00;0.00;;;;;;;11.93;51.12;102065.81;7348833;19;20089;-67
2023/04/20 00:45:36;;;;;;;0.00;0.00;;;;;;;11.91;51.27;102070.19;7342781;19;20801;-67
2023/04/20 00:48:01;;;;;;;0.00;0.00;;;;;;;11.87;51.96;102063.25;7349266;19;20015;-67
2023/04/20 00:50:27;;;;;;;0.03;0.03;;;;;;;11.83;51.79;102057.16;7344304;19;20010;-68
2023/04/20 00:52:53;;;;;;;0.00;0.00;;;;;;;11.80;51.73;102061.50;7345382;19;20015;-67
2023/04/20 00:55:20;;;;;;;0.00;0.00;;;;;;;11.79;51.61;102051.91;7346292;19;20013;-67
2023/04/20 00:57:45;;;;;;;0.00;0.00;;;;;;;11.74;51.93;102045.84;7344807;19;20022;-65
2023/04/20 01:00:11;;;;;;;0.00;0.00;;;;;;;11.70;51.38;102035.38;7348888;19;20306;-68
2023/04/20 01:02:36;;;;;;;0.00;0.00;;;;;;;11.68;51.07;102037.16;7343377;19;20014;-67
2023/04/20 01:05:02;;;;;;;0.00;0.00;;;;;;;11.64;51.64;102035.44;7346469;19;20524;-67
2023/04/20 01:07:28;;;;;;;0.00;0.00;;;;;;;11.61;52.04;102032.84;7340709;19;20006;-67
2023/04/20 01:09:55;;;;;;;0.00;0.00;;;;;;;11.56;52.18;102037.22;7346575;19;20849;-68
2023/04/20 01:12:20;;;;;;;0.00;0.00;;;;;;;11.53;52.32;102026.78;7347371;19;22492;-68
2023/04/20 01:14:45;;;;;;;0.00;0.00;;;;;;;11.50;52.72;102021.53;7345998;19;20015;-68
2023/04/20 01:17:13;;;;;;;0.00;0.00;;;;;;;11.40;52.73;102015.53;7346054;19;23336;-67
2023/04/20 01:19:40;;;;;;;0.00;0.00;;;;;;;11.43;53.16;102015.47;7344386;19;20034;-67
2023/04/20 01:22:06;;;;;;;0.00;0.00;;;;;;;11.41;52.76;102013.78;7346856;19;20030;-67
2023/04/20 01:24:32;;;;;;;0.00;0.00;;;;;;;11.22;52.96;101989.44;7344236;19;20014;-67
2023/04/20 01:26:58;;;;;;;0.00;0.00;;;;;;;11.36;53.10;102007.69;7344610;19;20074;-67
2023/04/20 01:29:23;;;;;;;0.00;0.00;;;;;;;11.32;53.06;102016.44;7343869;19;21303;-67
2023/04/20 01:31:49;;;;;;;0.00;0.00;;;;;;;11.29;52.66;102013.81;7350082;19;20018;-67
2023/04/20 01:34:16;;;;;;;0.00;0.00;;;;;;;11.18;52.66;102006.88;7343470;19;20015;-67
2023/04/20 01:36:42;;;;;;;0.00;0.00;;;;;;;11.25;52.60;102020.78;7347206;19;20022;-67
2023/04/20 01:39:08;;;;;;;0.00;0.00;;;;;;;11.22;52.40;102019.97;7341698;19;20042;-67
2023/04/20 01:41:33;;;;;;;0.00;0.00;;;;;;;11.00;52.71;101988.69;7348690;19;20018;-67
2023/04/20 01:43:59;;;;;;;0.00;0.00;;;;;;;11.15;52.97;102009.53;7349863;19;20513;-67
2023/04/20 01:46:24;;;;;;;0.05;0.05;;;;;;;11.04;52.78;102013.91;7346774;19;20450;-67
2023/04/20 01:48:49;;;;;;;0.00;0.00;;;;;;;11.09;52.53;102022.59;7350000;19;20113;-67
2023/04/20 01:51:15;;;;;;;0.00;0.00;;;;;;;11.00;52.58;102009.59;7347959;19;20727;-67
2023/04/20 01:53:40;;;;;;;0.10;0.10;;;;;;;11.03;52.41;102011.31;7351630;19;20014;-67
2023/04/20 01:56:06;;;;;;;0.00;0.00;;;;;;;11.01;52.55;102006.09;7345852;19;20049;-67
2023/04/20 01:58:31;;;;;;;0.10;0.10;;;;;;;10.96;52.77;102005.25;7340857;19;20006;-67
2023/04/20 02:00:57;;;;;;;0.00;0.00;;;;;;;10.92;52.59;102000.91;7352363;19;20010;-66
2023/04/20 02:03:22;;;;;;;0.00;0.00;;;;;;;10.91;52.63;102005.25;7352871;19;20010;-67
2023/04/20 02:05:48;;;;;;;0.00;0.00;;;;;;;10.89;52.88;102000.88;7350363;19;20014;-68
2023/04/20 02:08:13;;;;;;;0.00;0.00;;;;;;;10.84;52.94;101992.19;7349476;19;20633;-67
2023/04/20 02:10:38;;;;;;;0.00;0.00;;;;;;;10.84;52.50;102013.97;7347642;19;20030;-67
2023/04/20 02:13:04;;;;;;;0.00;0.00;;;;;;;10.80;52.65;102006.16;7351317;19;20014;-67
2023/04/20 02:15:29;;;;;;;0.00;0.00;;;;;;;10.79;52.83;102010.50;7353176;19;20014;-67
2023/04/20 02:17:56;;;;;;;0.00;0.00;;;;;;;10.79;52.40;102020.09;7350255;19;20035;-67
2023/04/20 02:20:21;;;;;;;0.00;0.00;;;;;;;10.76;52.69;102031.44;7353255;19;20006;-67
2023/04/20 02:22:47;;;;;;;0.00;0.00;;;;;;;10.74;52.85;102027.06;7352991;19;20713;-67
2023/04/20 02:25:13;;;;;;;0.00;0.00;;;;;;;10.71;52.92;102029.69;7351369;19;20018;-68
2023/04/20 02:27:38;;;;;;;0.00;0.00;;;;;;;10.69;53.10;102034.03;7350462;19;20365;-67
2023/04/20 02:30:04;;;;;;;0.00;0.00;;;;;;;10.57;52.97;102021.88;7351378;19;20011;-67
2023/04/20 02:32:30;;;;;;;0.00;0.00;;;;;;;10.60;52.91;102029.72;7347275;19;20018;-67
2023/04/20 02:34:56;;;;;;;0.00;0.00;;;;;;;10.59;52.69;102022.72;7354990;19;20007;-68
2023/04/20 02:37:21;;;;;;;0.00;0.00;;;;;;;10.59;53.33;102036.69;7352858;19;20014;-67
2023/04/20 02:39:46;;;;;;;0.00;0.00;;;;;;;10.56;53.23;102034.06;7353069;19;20027;-67
2023/04/20 02:42:12;;;;;;;0.00;0.00;;;;;;;10.53;53.13;102039.28;7351017;19;20010;-67
2023/04/20 02:44:37;;;;;;;0.00;0.00;;;;;;;10.51;53.56;102038.44;7354048;19;20010;-67
2023/04/20 02:47:03;;;;;;;0.00;0.00;;;;;;;10.39;53.34;102021.03;7348156;19;20018;-67
2023/04/20 02:49:28;;;;;;;0.00;0.00;;;;;;;10.46;53.45;102048.00;7353781;19;20475;-67
2023/04/20 02:51:54;;;;;;;0.00;0.00;;;;;;;10.44;53.67;102044.53;7349293;19;20648;-68
2023/04/20 02:54:19;;;;;;;0.00;0.00;;;;;;;10.39;53.82;102038.41;7351214;19;20022;-67
2023/04/20 02:56:45;;;;;;;0.00;0.00;;;;;;;10.25;54.12;102016.69;7349063;19;20391;-67
2023/04/20 02:59:11;;;;;;;0.00;0.00;;;;;;;10.37;54.14;102040.19;7350571;19;20121;-68
2023/04/20 03:01:36;;;;;;;0.00;0.00;;;;;;;10.35;53.80;102039.31;7354307;19;20802;-67
2023/04/20 03:04:01;;;;;;;0.00;0.00;;;;;;;10.33;53.89;102033.22;7328271;19;20010;-67
2023/04/20 03:06:27;;;;;;;0.00;0.00;;;;;;;10.31;54.24;102032.34;7347358;19;20053;-67
2023/04/20 03:08:52;;;;;;;0.00;0.00;;;;;;;10.28;54.09;102032.34;7351148;19;20014;-67
2023/04/20 03:11:18;;;;;;;0.00;0.00;;;;;;;10.27;54.06;102025.38;7343983;19;20015;-68
2023/04/20 03:13:43;;;;;;;0.00;0.00;;;;;;;10.26;54.31;102026.25;7350510;19;20074;-67
2023/04/20 03:16:09;;;;;;;0.00;0.00;;;;;;;10.21;54.39;102026.22;7342765;19;20014;-67
2023/04/20 03:18:35;;;;;;;0.00;0.00;;;;;;;10.23;54.36;102031.44;7330322;19;20818;-67
2023/04/20 03:21:00;;;;;;;0.00;0.00;;;;;;;10.20;54.04;102031.47;7351096;19;20014;-67
2023/04/20 03:23:25;;;;;;;0.00;0.00;;;;;;;10.05;54.19;102019.25;7355707;19;20010;-67
2023/04/20 03:25:51;;;;;;;0.00;0.00;;;;;;;10.13;54.30;102044.47;7355314;19;20018;-67
2023/04/20 03:28:16;;;;;;;0.00;0.00;;;;;;;10.12;54.20;102047.97;7357632;19;20145;-67
2023/04/20 03:30:42;;;;;;;0.00;0.00;;;;;;;10.04;54.20;102036.66;7356828;19;20015;-67
2023/04/20 03:33:07;;;;;;;0.00;0.00;;;;;;;10.07;54.10;102041.88;7356330;19;20022;-67
2023/04/20 03:35:33;;;;;;;0.00;0.00;;;;;;;10.06;54.55;102047.97;7357046;19;20026;-67
2023/04/20 03:37:58;;;;;;;0.00;0.00;;;;;;;10.01;54.33;102044.47;7354493;19;20092;-67
2023/04/20 03:40:24;;;;;;;0.00;0.00;;;;;;;10.00;54.60;102041.88;7354598;19;20624;-67
2023/04/20 03:42:49;;;;;;;0.00;0.00;;;;;;;9.97;54.67;102044.47;7356616;19;20019;-67
2023/04/20 03:45:16;;;;;;;0.00;0.00;;;;;;;9.95;54.39;102043.63;7355328;19;20019;-68
2023/04/20 03:47:41;;;;;;;0.00;0.00;;;;;;;9.92;54.58;102039.25;7355361;19;20018;-67
2023/04/20 03:50:07;;;;;;;0.00;0.00;;;;;;;9.92;54.46;102044.47;7356393;19;20026;-68
2023/04/20 03:52:32;;;;;;;0.00;0.00;;;;;;;9.89;54.66;102039.25;7356724;19;20012;-67
2023/04/20 03:54:58;;;;;;;0.05;0.05;;;;;;;9.87;54.67;102025.31;7357645;19;20173;-67
2023/04/20 03:57:23;;;;;;;0.00;0.00;;;;;;;9.87;54.76;102020.09;7353537;19;20011;-67
2023/04/20 03:59:49;;;;;;;0.00;0.00;;;;;;;9.83;54.57;102015.75;7354611;19;20023;-67
2023/04/20 04:02:14;;;;;;;0.00;0.00;;;;;;;9.81;54.98;102010.53;7357461;19;20010;-68
2023/04/20 04:04:40;;;;;;;0.00;0.00;;;;;;;9.80;54.70;102010.53;7357062;19;20002;-67
2023/04/20 04:07:06;;;;;;;0.00;0.00;;;;;;;9.78;55.15;102009.66;7356359;19;20006;-67
2023/04/20 04:09:31;;;;;;;0.00;0.00;;;;;;;9.77;55.17;102013.13;7354293;19;20399;-67
2023/04/20 04:11:56;;;;;;;0.00;0.00;;;;;;;9.76;55.26;102006.19;7357626;19;20094;-67
2023/04/20 04:14:22;;;;;;;0.00;0.00;;;;;;;9.73;54.95;102000.94;7354534;19;20011;-67
2023/04/20 04:16:47;;;;;;;0.00;0.00;;;;;;;9.73;55.28;101990.50;7360732;19;20371;-68
2023/04/20 04:19:13;;;;;;;0.00;0.00;;;;;;;9.71;55.30;101982.69;7353027;19;20018;-67
2023/04/20 04:21:38;;;;;;;0.00;0.00;;;;;;;9.70;55.36;101980.09;7355494;19;20117;-67
2023/04/20 04:24:04;;;;;;;0.00;0.00;;;;;;;9.63;55.23;101968.78;7353164;19;20010;-67
2023/04/20 04:26:30;;;;;;;0.00;0.00;;;;;;;9.68;55.21;101979.19;7356672;19;20025;-68
2023/04/20 04:28:56;;;;;;;0.00;0.00;;;;;;;9.67;55.35;101995.72;7355292;19;20025;-67
2023/04/20 04:31:22;;;;;;;0.00;0.00;;;;;;;9.66;55.42;101994.00;7355801;19;20585;-67
2023/04/20 04:33:48;;;;;;;0.00;0.00;;;;;;;9.51;55.13;101980.06;7352582;19;20044;-67
2023/04/20 04:36:14;;;;;;;0.00;0.00;;;;;;;9.55;54.97;102000.06;7353163;19;20019;-67
2023/04/20 04:38:43;;;;;;;0.00;0.00;;;;;;;9.64;55.40;102016.59;7355514;19;20010;-68
2023/04/20 04:41:09;;;;;;;0.00;0.00;;;;;;;9.62;55.06;102001.81;7357306;19;20640;-68
2023/04/20 04:43:35;;;;;;;0.00;0.00;;;;;;;9.60;55.47;102003.53;7354343;19;20018;-67
2023/04/20 04:46:08;;;;;;;0.00;0.00;;;;;;;9.62;55.22;101993.97;7354217;19;20014;-67
2023/04/20 04:48:34;;;;;;;0.00;0.00;;;;;;;9.59;55.00;101993.97;7353081;19;20038;-67
2023/04/20 04:50:59;;;;;;;0.00;0.00;;;;;;;9.58;55.24;101992.25;7357530;19;20381;-67
2023/04/20 04:53:25;;;;;;;0.00;0.00;;;;;;;9.55;55.68;101992.22;7354289;19;20014;-67
2023/04/20 04:55:50;;;;;;;0.00;0.00;;;;;;;9.57;55.68;102000.91;7351831;19;20594;-67
2023/04/20 04:58:16;;;;;;;0.00;0.00;;;;;;;9.52;55.15;101994.81;7354101;19;20462;-68
2023/04/20 05:00:41;;;;;;;0.00;0.00;;;;;;;9.55;55.61;102000.06;7351672;19;20010;-68
2023/04/20 05:03:06;;;;;;;0.00;0.00;;;;;;;9.44;55.68;101980.06;7351403;19;20022;-67
2023/04/20 05:05:32;;;;;;;0.00;0.00;;;;;;;9.53;55.60;102003.50;7354436;19;20023;-67
2023/04/20 05:07:57;;;;;;;0.05;0.05;;;;;;;9.48;55.50;101992.19;7353185;19;20371;-67
2023/04/20 05:10:23;;;;;;;0.00;0.00;;;;;;;9.51;55.41;101995.69;7352939;19;20038;-68
2023/04/20 05:12:48;;;;;;;0.00;0.00;;;;;;;9.47;55.47;101995.69;7349928;19;20013;-67
2023/04/20 05:15:13;;;;;;;0.00;0.00;;;;;;;9.48;55.03;101995.72;7355411;19;20497;-67
2023/04/20 05:17:39;;;;;;;0.00;0.00;;;;;;;9.46;55.92;101994.81;7353663;19;20482;-67
2023/04/20 05:20:06;;;;;;;0.00;0.00;;;;;;;9.30;55.59;101969.56;7355597;19;20373;-68
2023/04/20 05:22:32;;;;;;;0.00;0.00;;;;;;;9.45;55.66;101995.69;7353214;19;20841;-67
2023/04/20 05:24:57;;;;;;;0.00;0.00;;;;;;;9.45;55.61;101989.59;7354337;19;20011;-68
2023/04/20 05:27:22;;;;;;;0.00;0.00;;;;;;;9.44;55.65;102004.38;7353313;19;20509;-67
2023/04/20 05:29:48;;;;;;;0.00;0.00;;;;;;;9.44;55.82;101998.31;7351472;19;20002;-67
2023/04/20 05:32:13;;;;;;;0.00;0.00;;;;;;;9.44;55.63;102001.78;7353546;19;20002;-68
2023/04/20 05:34:39;;;;;;;0.00;0.00;;;;;;;9.43;55.84;101999.13;7352848;19;20753;-67
2023/04/20 05:37:05;;;;;;;0.00;0.00;;;;;;;9.43;56.23;101997.44;7354238;19;20090;-67
2023/04/20 05:39:30;;;;;;;0.00;0.00;;;;;;;9.44;55.84;101999.16;7353669;19;20014;-68
2023/04/20 05:41:56;;;;;;;0.00;0.00;;;;;;;9.36;56.39;101995.66;7354408;19;20010;-67
2023/04/20 05:44:22;;;;;;;0.00;0.00;;;;;;;9.43;56.60;101992.22;7352030;19;20837;-67
2023/04/20 05:46:47;;;;;;;0.00;0.00;;;;;;;9.44;56.56;101995.69;7350061;19;20015;-67
2023/04/20 05:49:13;;;;;;;0.00;0.00;;;;;;;9.43;56.41;102005.25;7354424;19;20032;-67
2023/04/20 05:51:39;;;;;;;0.00;0.00;;;;;;;9.44;56.79;102003.50;7350454;19;20578;-67
2023/04/20 05:54:04;;;;;;;0.00;0.00;;;;;;;9.43;56.51;102013.06;7355122;19;20018;-67
2023/04/20 05:56:30;;;;;;;0.00;0.00;;;;;;;9.45;56.50;102015.69;7350405;19;20382;-67
2023/04/20 05:58:56;;;;;;;0.00;0.00;;;;;;;9.44;56.86;102025.25;7344371;19;20765;-67
2023/04/20 06:01:21;;;;;;;0.00;0.00;;;;;;;9.44;56.70;102017.41;7353613;19;20014;-67
2023/04/20 06:03:48;;;;;;;0.00;0.00;;;;;;;9.44;56.73;102025.25;7354576;19;20021;-68
2023/04/20 06:06:14;;;;;;;0.00;0.00;;;;;;;9.45;56.90;102019.16;7353255;19;20534;-67
2023/04/20 06:08:39;;;;;;;0.00;0.00;;;;;;;9.46;57.02;102018.28;7356422;19;20034;-68
2023/04/20 06:11:05;;;;;;;0.00;0.00;;;;;;;9.47;56.90;102017.41;7348206;19;20356;-67
2023/04/20 06:13:30;;;;;;;0.00;0.00;;;;;;;9.49;57.21;102010.47;7352089;19;20013;-67
2023/04/20 06:15:55;;;;;;;0.00;0.00;;;;;;;9.48;57.53;102008.75;7351681;19;20019;-67
2023/04/20 06:18:21;;;;;;;0.00;0.00;;;;;;;9.49;57.26;102012.22;7350074;19;20015;-67
2023/04/20 06:20:46;;;;;;;0.00;0.00;;;;;;;9.52;57.66;102015.69;7351093;19;20022;-67
2023/04/20 06:23:12;;;;;;;0.00;0.00;;;;;;;9.17;57.87;101954.75;7354102;19;21020;-71
2023/04/20 06:25:38;;;;;;;0.00;0.00;;;;;;;9.55;57.38;102018.31;7353126;19;20018;-67
2023/04/20 06:28:04;;;;;;;0.03;0.03;;;;;;;9.43;58.12;102000.03;7351155;19;20021;-67
2023/04/20 06:30:30;;;;;;;0.00;0.00;;;;;;;9.59;57.41;102020.06;7351164;19;20011;-67
2023/04/20 06:32:55;;;;;;;0.08;0.08;;;;;;;9.62;57.80;102012.22;7353438;19;20402;-67
2023/04/20 06:35:22;;;;;;;0.00;0.00;;;;;;;9.53;58.05;101991.38;7351233;19;20019;-67
2023/04/20 06:37:47;;;;;;;0.00;0.00;;;;;;;9.68;57.81;102005.28;7350692;19;20014;-68
2023/04/20 06:40:13;;;;;;;0.00;0.00;;;;;;;9.71;57.71;102006.16;7350269;19;20081;-67
2023/04/20 06:42:38;;;;;;;0.00;0.00;;;;;;;9.74;58.13;102005.31;7350118;19;20010;-68
2023/04/20 06:45:07;;;;;;;0.00;0.00;;;;;;;9.80;56.78;101997.50;7352036;19;20021;-67
2023/04/20 06:47:33;;;;;;;0.08;0.08;;;;;;;9.77;57.55;101997.47;7349146;19;20573;-66
2023/04/20 06:50:00;;;;;;;0.05;0.05;;;;;;;9.86;57.87;102007.94;7351950;19;20385;-68
2023/04/20 06:52:27;;;;;;;0.00;0.00;;;;;;;9.87;58.01;102013.16;7351492;19;20018;-67
2023/04/20 06:54:52;;;;;;;0.00;0.00;;;;;;;9.91;57.94;102027.06;7353833;19;20014;-67
2023/04/20 06:57:18;;;;;;;0.00;0.00;;;;;;;9.83;58.24;102006.22;7335121;19;20032;-67
2023/04/20 06:59:44;;;;;;;0.00;0.00;;;;;;;9.62;58.20;101977.47;7353449;19;20031;-68
2023/04/20 07:02:09;;;;;;;0.00;0.00;;;;;;;10.04;58.55;102039.28;7338788;19;20051;-67
2023/04/20 07:04:35;;;;;;;0.00;0.00;;;;;;;10.07;58.22;102018.38;7348970;19;20131;-67
2023/04/20 07:07:00;;;;;;;0.00;0.00;;;;;;;10.11;57.97;102009.69;7355881;19;20013;-67
2023/04/20 07:09:26;;;;;;;0.00;0.00;;;;;;;10.26;58.49;102019.28;7361686;19;20114;-68
2023/04/20 07:11:51;;;;;;;0.00;0.00;;;;;;;10.31;58.40;102019.31;7358897;19;20014;-67
2023/04/20 07:14:17;;;;;;;0.00;0.00;;;;;;;10.10;58.42;101955.75;7357898;19;20017;-67
2023/04/20 07:16:42;;;;;;;0.00;0.00;;;;;;;10.46;58.12;102003.63;7361112;19;20034;-67
2023/04/20 07:19:07;;;;;;;0.00;0.00;;;;;;;10.30;57.56;101958.38;7356166;19;20007;-67
2023/04/20 07:21:34;;;;;;;0.00;0.00;;;;;;;10.56;57.93;101997.50;7359487;19;20046;-67
2023/04/20 07:23:59;;;;;;;0.00;0.00;;;;;;;10.54;58.16;101983.59;7356056;19;20039;-67
2023/04/20 07:26:25;;;;;;;0.00;0.00;;;;;;;10.67;57.67;102004.44;7359135;19;20590;-67
2023/04/20 07:28:51;;;;;;;0.00;0.00;;;;;;;10.70;57.42;102001.84;7358801;19;20070;-67
2023/04/20 07:31:17;;;;;;;0.00;0.00;;;;;;;10.72;57.32;102003.56;7359414;19;20018;-68
2023/04/20 07:33:43;;;;;;;0.00;0.00;;;;;;;10.74;57.37;101998.31;7357664;19;20019;-67
2023/04/20 07:36:08;;;;;;;0.00;0.00;;;;;;;10.76;57.56;101999.22;7358030;19;24084;-68
2023/04/20 07:38:34;;;;;;;0.00;0.00;;;;;;;10.77;57.68;102011.41;7360761;19;20014;-67
2023/04/20 07:41:00;;;;;;;0.00;0.00;;;;;;;10.79;57.54;102010.50;7357517;19;20010;-68
2023/04/20 07:43:25;;;;;;;0.00;0.00;;;;;;;10.69;57.46;102003.56;7351609;19;20018;-68
2023/04/20 07:45:51;;;;;;;0.00;0.00;;;;;;;10.84;57.40;101997.44;7356133;19;20011;-67
2023/04/20 07:48:16;;;;;;;0.00;0.00;;;;;;;10.87;58.01;101998.28;7352485;19;20014;-68
2023/04/20 07:50:42;;;;;;;0.00;0.00;;;;;;;10.91;57.91;101993.94;7358138;19;20441;-68
2023/04/20 07:53:07;;;;;;;0.00;0.00;;;;;;;10.94;57.71;101993.91;7355706;19;20029;-68
2023/04/20 07:55:33;;;;;;;0.00;0.00;;;;;;;10.98;57.47;102000.00;7358516;19;20014;-68
2023/04/20 07:57:59;;;;;;;0.00;0.00;;;;;;;11.01;57.69;102006.09;7357901;19;20738;-67
2023/04/20 08:00:25;;;;;;;0.00;0.00;;;;;;;11.04;57.47;102000.84;7359807;19;19998;-68
2023/04/20 08:02:51;;;;;;;0.10;0.10;;;;;;;11.07;57.66;102000.84;7346952;19;20442;-67
2023/04/20 08:05:16;;;;;;;0.05;0.05;;;;;;;11.00;57.87;101983.47;7358334;19;20010;-67
2023/04/20 08:07:41;;;;;;;0.00;0.00;;;;;;;11.12;57.84;101999.06;7357853;19;20077;-67
2023/04/20 08:10:07;;;;;;;0.00;0.00;;;;;;;11.15;57.62;101999.06;7357618;19;20782;-68
2023/04/20 08:12:33;;;;;;;0.00;0.00;;;;;;;11.17;57.03;102007.78;7360774;19;20014;-67
2023/04/20 08:15:00;;;;;;;0.00;0.00;;;;;;;11.22;57.93;102004.28;7360031;19;20010;-67
2023/04/20 08:17:27;;;;;;;0.00;0.00;;;;;;;11.25;57.79;102006.84;7356781;19;20638;-68
2023/04/20 08:19:52;;;;;;;0.00;0.00;;;;;;;11.27;57.80;102003.38;7363261;19;20169;-68
2023/04/20 08:22:17;;;;;;;0.08;0.08;;;;;;;11.25;57.71;102010.34;7360097;19;20074;-67
2023/04/20 08:24:43;;;;;;;0.03;0.03;;;;;;;11.34;57.14;102019.88;7358667;19;20616;-68
2023/04/20 08:27:09;;;;;;;0.00;0.00;;;;;;;11.38;57.38;102013.78;7360096;19;20103;-68
2023/04/20 08:29:34;;;;;;;0.00;0.00;;;;;;;11.40;57.31;102035.53;7359918;19;20021;-68
2023/04/20 08:31:59;;;;;;;0.00;0.00;;;;;;;11.40;56.93;102010.28;7357630;19;20021;-67
2023/04/20 08:34:25;;;;;;;0.00;0.00;;;;;;;11.48;57.16;102012.84;7358567;19;20010;-68
2023/04/20 08:36:51;;;;;;;0.00;0.00;;;;;;;11.50;57.15;102011.06;7360599;19;20011;-67
2023/04/20 08:39:22;;;;;;;0.00;0.00;;;;;;;11.59;57.32;102029.34;7357575;19;20019;-67
2023/04/20 08:41:52;;;;;;;0.00;0.00;;;;;;;11.60;56.66;102038.94;7360840;19;20021;-67
2023/04/20 08:44:18;;;;;;;0.00;0.00;;;;;;;11.66;57.08;102027.59;7353381;19;20740;-68
2023/04/20 08:46:46;;;;;;;0.00;0.00;;;;;;;11.75;56.42;102026.63;7360559;19;20040;-68
2023/04/20 08:49:14;;;;;;;0.00;0.00;;;;;;;11.77;56.58;102019.66;7357535;19;20740;-68
2023/04/20 08:51:40;;;;;;;0.00;0.00;;;;;;;11.87;56.45;102006.53;7359203;19;20018;-67
2023/04/20 08:54:06;;;;;;;0.00;0.00;;;;;;;12.14;56.50;102018.53;7359782;19;20010;-67
2023/04/20 08:56:35;;;;;;;0.00;0.00;;;;;;;12.32;56.32;102024.53;7355545;19;20014;-68
2023/04/20 08:59:04;;;;;;;0.10;0.10;;;;;;;12.51;55.56;102005.09;7359411;19;20817;-67
2023/04/20 09:01:31;;;;;;;0.10;0.10;;;;;;;12.66;55.18;102019.81;7357891;19;20015;-68
2023/04/20 09:03:59;;;;;;;0.00;0.00;;;;;;;12.83;55.38;102007.41;7358949;19;20041;-67
2023/04/20 09:06:24;;;;;;;0.08;0.08;;;;;;;13.02;55.43;102015.03;7359237;19;20022;-67
2023/04/20 09:08:50;;;;;;;0.00;0.00;;;;;;;13.19;55.24;102016.59;7358425;19;20018;-68
2023/04/20 09:11:26;;;;;;;0.08;0.08;;;;;;;13.47;55.25;102000.50;7358544;19;20105;-68
2023/04/20 09:14:06;;;;;;;0.10;0.10;;;;;;;13.75;54.80;101998.38;7359333;19;20014;-67
2023/04/20 09:16:33;;;;;;;0.10;0.10;;;;;;;13.91;53.86;102020.00;7361209;19;20023;-68
2023/04/20 09:18:59;;;;;;;0.00;0.00;;;;;;;14.06;53.66;102022.38;7356492;19;20027;-67
2023/04/20 09:21:27;;;;;;;0.03;0.03;;;;;;;14.23;53.90;102024.72;7358902;19;20007;-68
2023/04/20 09:24:10;;;;;;;;;;;;;;;14.49;54.29;102021.69;7358506;19;20027;-68
2023/04/20 09:26:35;;;;;;;0.00;0.00;;;;;;;14.60;53.34;102027.63;7360284;19;19925;-68
2023/04/20 09:29:02;;;;;;;0.00;0.00;;;;;;;14.75;52.80;102024.72;7356192;19;20018;-68
2023/04/20 09:31:28;;;;;;;0.03;0.03;;;;;;;14.78;52.42;102008.00;7357990;19;20385;-68
2023/04/20 09:34:00;;;;;;;0.10;0.10;;;;;;;15.10;52.52;102020.50;7356005;19;20018;-68
2023/04/20 09:36:39;;;;;;;0.00;0.00;;;;;;;15.35;52.64;102026.13;7359977;19;20035;-67
2023/04/20 09:39:07;;;;;;;0.10;0.10;;;;;;;15.48;51.58;102032.00;7358514;19;20455;-67
2023/04/20 09:41:35;;;;;;;0.08;0.08;;;;;;;15.58;50.69;102026.50;7360329;19;20074;-67
2023/04/20 09:44:01;;;;;;;0.00;0.00;;;;;;;15.56;50.03;102003.72;7358920;19;20047;-67
2023/04/20 09:46:32;;;;;;;0.05;0.05;;;;;;;15.87;50.31;102019.75;7358078;19;20419;-67
2023/04/20 09:48:59;;;;;;;0.03;0.03;;;;;;;15.65;50.24;101964.06;7358685;19;20025;-67
2023/04/20 09:51:28;;;;;;;0.00;0.00;;;;;;;16.20;50.71;102002.22;7356711;19;20853;-67
2023/04/20 09:53:55;;;;;;;0.00;0.00;;;;;;;16.43;50.18;102008.69;7358088;19;20029;-67
2023/04/20 09:56:21;;;;;;;;;;;;;;;16.75;52.45;102007.84;7357711;19;20048;-67
2023/04/20 09:58:46;;;;;;;0.00;0.00;;;;;;;16.86;49.74;101996.09;7356892;19;20280;-67
2023/04/20 10:01:12;;;;;;;0.10;0.10;;;;;;;17.13;49.61;102001.47;7353953;19;20010;-67
2023/04/20 10:03:41;;;;;;;0.10;0.10;;;;;;;17.45;49.12;102007.59;7356084;19;20082;-67
2023/04/20 10:06:20;;;;;;;0.10;0.10;;;;;;;17.77;49.77;102004.81;7357161;19;20678;-67
2023/04/20 10:08:47;;;;;;;0.10;0.10;;;;;;;17.97;47.34;102003.31;7357032;19;20029;-67
2023/04/20 10:11:24;;;;;;;0.00;0.00;;;;;;;18.23;48.51;101987.44;7355184;19;20566;-67
2023/04/20 10:13:49;;;;;;;0.10;0.10;;;;;;;18.48;46.95;102002.47;7357147;19;20650;-67
2023/04/20 10:16:18;;;;;;;0.10;0.10;;;;;;;18.82;46.08;102007.47;7355117;19;21491;-67
2023/04/20 10:18:59;;;;;;;0.08;0.08;;;;;;;19.12;46.93;102008.13;7357264;19;20031;-67
2023/04/20 10:21:26;;;;;;;0.10;0.10;;;;;;;19.16;44.71;101993.84;7356415;19;20047;-67
2023/04/20 10:23:53;;;;;;;0.10;0.10;;;;;;;19.49;43.93;102009.38;7354742;19;20051;-67
2023/04/20 10:26:19;;;;;;;0.10;0.10;;;;;;;19.68;43.95;102011.25;7356611;19;20022;-67
2023/04/20 10:28:45;;;;;;;0.10;0.10;;;;;;;19.89;44.22;102003.38;7355082;19;20015;-66
2023/04/20 10:31:14;;;;;;;0.10;0.10;;;;;;;20.16;43.88;102006.66;7361518;19;20024;-67
2023/04/20 10:33:55;;;;;;;0.10;0.10;;;;;;;20.51;45.98;101996.34;7367805;19;20017;-67
2023/04/20 10:36:31;;;;;;;0.10;0.10;;;;;;;20.76;43.08;101990.84;7369951;19;20971;-67
2023/04/20 10:38:57;;;;;;;0.00;0.00;;;;;;;20.95;42.28;101981.97;7372113;19;20676;-67
2023/04/20 10:41:23;;;;;;;0.10;0.10;;;;;;;21.24;41.81;101993.91;7369054;19;20135;-67
2023/04/20 10:43:49;;;;;;;0.00;0.00;;;;;;;21.48;40.58;101978.59;7369952;19;20436;-67
2023/04/20 10:46:22;;;;;;;0.10;0.10;;;;;;;21.92;43.36;101988.88;7368666;19;20018;-67
2023/04/20 10:49:02;;;;;;;0.10;0.10;;;;;;;22.06;39.66;101988.19;7372289;19;20010;-67
2023/04/20 10:51:28;;;;;;;0.10;0.10;;;;;;;22.31;39.80;101986.97;7370776;19;20070;-67
2023/04/20 10:54:04;;;;;;;0.10;0.10;;;;;;;22.65;40.13;101978.06;7367065;19;20087;-67
2023/04/20 10:56:41;;;;;;;0.00;0.00;;;;;;;22.85;41.55;101975.19;7369443;19;20014;-66
2023/04/20 10:59:09;;;;;;;0.10;0.10;;;;;;;22.94;38.55;101977.41;7369283;19;20406;-67
2023/04/20 11:01:34;;;;;;;;;;;;;;;23.34;43.84;101969.03;7371458;19;20089;-64
2023/04/20 11:04:00;;;;;;;0.10;0.10;;;;;;;23.37;36.83;101987.50;7366642;19;20410;-67
2023/04/20 11:06:26;;;;;;;0.00;0.00;;;;;;;23.43;37.55;101965.84;7369335;19;20041;-65
2023/04/20 11:08:52;;;;;;;0.10;0.10;;;;;;;23.69;36.47;101975.06;7368690;19;20018;-66
2023/04/20 11:11:27;;;;;;;0.10;0.10;;;;;;;23.92;37.80;101974.56;7368628;19;20067;-66
2023/04/20 11:14:09;;;;;;;0.17;0.17;;;;;;;24.07;38.73;101954.97;7368109;19;20035;-67
2023/04/20 11:16:35;;;;;;;0.10;0.10;;;;;;;24.08;35.60;101967.38;7369134;19;20029;-66
2023/04/20 11:19:02;;;;;;;0.10;0.10;;;;;;;24.26;35.98;101962.75;7371010;19;20083;-65
2023/04/20 11:21:41;;;;;;;0.00;0.00;;;;;;;24.62;37.32;101968.63;7369332;19;20111;-66
2023/04/20 11:24:20;;;;;;;0.10;0.10;;;;;;;24.87;36.87;101970.66;7367999;19;20014;-67
2023/04/20 11:26:48;;;;;;;0.10;0.10;;;;;;;24.92;34.14;101966.72;7369195;19;20016;-66